Time;durP1;ratioP1;P1;durP2;ratioP2;P2;SDS_P1;SDS_P2;PMS_P1;PMS_P2;Temp;Humidity;BMP_temperature;BMP_pressure;BME280_temperature;BME280_humidity;BME280_pressure;Samples;Min_cycle;Max_cycle;Signal;HPM_P1;HPM_P2
2022/01/06 00:00:07;;;;;;;4.40;1.80;;;;;;;;;;5073680;28;20031;-71
2022/01/06 00:02:33;;;;;;;6.60;2.42;;;;;;;;;;5073389;28;20478;-70
2022/01/06 00:04:59;;;;;;;3.40;2.58;;;;;;;;;;5072851;28;20028;-70
2022/01/06 00:07:26;;;;;;;7.30;3.45;;;;;;;;;;5073061;28;20031;-70
2022/01/06 00:09:52;;;;;;;3.22;2.53;;;;;;;;;;5073767;28;20371;-71
2022/01/06 00:12:22;;;;;;;5.55;2.25;;;;;;;;;;5073973;28;20044;-70
2022/01/06 00:15:02;;;;;;;12.32;3.60;;;;;;;;;;5054836;28;20469;-71
2022/01/06 00:23:21;;;;;;;6.90;3.58;;;;;;;;;;5073262;28;20509;-71
2022/01/06 00:25:47;;;;;;;6.25;3.47;;;;;;;;;;5073701;28;20050;-72
2022/01/06 00:28:14;;;;;;;6.40;3.83;;;;;;;;;;5073354;28;20063;-72
2022/01/06 00:30:40;;;;;;;10.90;4.20;;;;;;;;;;5073527;28;20036;-73
2022/01/06 00:33:06;;;;;;;12.60;3.90;;;;;;;;;;5054844;28;20020;-72
2022/01/06 00:35:32;;;;;;;10.68;4.07;;;;;;;;;;5073067;28;20157;-73
2022/01/06 00:37:58;;;;;;;10.65;3.47;;;;;;;;;;5072887;28;20024;-72
2022/01/06 00:40:24;;;;;;;7.93;3.95;;;;;;;;;;5072768;28;20440;-73
2022/01/06 00:42:50;;;;;;;11.23;3.92;;;;;;;;;;5053896;28;20128;-72
2022/01/06 00:45:16;;;;;;;13.00;4.68;;;;;;;;;;5072555;28;20079;-73
2022/01/06 00:47:44;;;;;;;7.38;3.78;;;;;;;;;;5054346;28;20305;-73
2022/01/06 00:50:10;;;;;;;12.00;3.97;;;;;;;;;;5072941;28;20487;-72
2022/01/06 00:52:36;;;;;;;9.43;3.97;;;;;;;;;;5054472;28;20115;-72
2022/01/06 00:55:02;;;;;;;8.35;3.53;;;;;;;;;;5071921;28;20043;-71
2022/01/06 00:57:28;;;;;;;6.22;2.45;;;;;;;;;;5072165;28;20028;-72
2022/01/06 00:59:54;;;;;;;5.93;2.42;;;;;;;;;;5072270;28;20066;-71
2022/01/06 01:02:20;;;;;;;5.60;3.63;;;;;;;;;;5072236;28;20462;-71
2022/01/06 01:04:47;;;;;;;7.75;2.10;;;;;;;;;;5071562;28;20077;-72
2022/01/06 01:07:13;;;;;;;3.92;1.45;;;;;;;;;;5072092;28;20397;-72
2022/01/06 01:09:39;;;;;;;4.25;1.70;;;;;;;;;;5072365;28;20375;-72
2022/01/06 01:12:06;;;;;;;3.58;1.58;;;;;;;;;;5072116;28;20028;-72
2022/01/06 01:14:43;;;;;;;4.82;2.40;;;;;;;;;;5071359;28;20020;-71
2022/01/06 01:17:13;;;;;;;1.88;1.10;;;;;;;;;;5072404;28;20021;-73
2022/01/06 01:19:39;;;;;;;2.97;1.10;;;;;;;;;;5072272;28;20029;-72
2022/01/06 01:22:05;;;;;;;4.40;1.52;;;;;;;;;;5071989;28;20266;-72
2022/01/06 01:24:32;;;;;;;1.35;0.90;;;;;;;;;;5053345;28;20123;-71
2022/01/06 01:26:58;;;;;;;3.13;1.25;;;;;;;;;;5072105;28;20149;-72
2022/01/06 01:29:24;;;;;;;2.95;1.20;;;;;;;;;;5072335;28;20383;-72
2022/01/06 01:31:53;;;;;;;0.95;0.93;;;;;;;;;;5072415;28;20488;-72
2022/01/06 01:34:23;;;;;;;1.35;1.25;;;;;;;;;;5053216;28;20035;-72
2022/01/06 01:36:50;;;;;;;7.20;1.88;;;;;;;;;;5071727;28;20016;-71
2022/01/06 01:39:16;;;;;;;8.95;1.70;;;;;;;;;;5071754;28;20107;-72
2022/01/06 01:41:42;;;;;;;3.75;2.33;;;;;;;;;;5072107;28;20028;-72
2022/01/06 01:44:13;;;;;;;6.25;2.47;;;;;;;;;;5071378;28;20426;-70
2022/01/06 01:46:43;;;;;;;;;;;;;;;;;;5072003;28;20017;-71
2022/01/06 01:51:45;;;;;;;11.73;3.35;;;;;;;;;;5071815;28;20035;-71
2022/01/06 01:54:11;;;;;;;13.90;4.13;;;;;;;;;;5070195;28;20470;-71
2022/01/06 01:56:37;;;;;;;9.93;3.10;;;;;;;;;;5053619;28;20112;-71
2022/01/06 01:59:03;;;;;;;9.93;3.22;;;;;;;;;;5071361;28;20465;-71
2022/01/06 02:01:29;;;;;;;9.40;3.33;;;;;;;;;;5053583;28;20032;-71
2022/01/06 02:03:55;;;;;;;8.32;3.65;;;;;;;;;;5070900;28;20097;-71
2022/01/06 02:06:22;;;;;;;9.38;3.22;;;;;;;;;;5071499;28;20478;-71
2022/01/06 02:08:48;;;;;;;12.55;3.20;;;;;;;;;;5071441;28;20033;-71
2022/01/06 02:11:14;;;;;;;10.90;3.28;;;;;;;;;;5071614;28;20028;-71
2022/01/06 02:13:50;;;;;;;7.45;2.80;;;;;;;;;;5052952;28;20021;-71
2022/01/06 02:16:20;;;;;;;9.93;3.55;;;;;;;;;;5071374;28;20501;-71
2022/01/06 02:18:46;;;;;;;6.30;2.60;;;;;;;;;;5071289;28;20020;-71
2022/01/06 02:21:12;;;;;;;9.20;3.10;;;;;;;;;;5071270;28;20554;-71
2022/01/06 02:23:38;;;;;;;12.02;2.83;;;;;;;;;;5070586;28;20033;-71
2022/01/06 02:26:04;;;;;;;9.18;2.25;;;;;;;;;;5070978;28;20055;-70
2022/01/06 02:28:30;;;;;;;10.52;2.67;;;;;;;;;;5053023;28;20398;-71
2022/01/06 02:30:57;;;;;;;5.53;2.45;;;;;;;;;;5071205;28;20036;-71
2022/01/06 02:33:27;;;;;;;11.75;1.90;;;;;;;;;;5070492;28;20486;-70
2022/01/06 02:35:54;;;;;;;12.27;2.83;;;;;;;;;;5071311;28;20115;-71
2022/01/06 02:38:20;;;;;;;7.82;2.13;;;;;;;;;;5071414;28;20494;-71
2022/01/06 02:40:46;;;;;;;7.28;1.95;;;;;;;;;;5071397;28;20089;-71
2022/01/06 02:43:15;;;;;;;6.32;1.48;;;;;;;;;;5052495;28;20123;-70
2022/01/06 02:45:41;;;;;;;7.47;2.13;;;;;;;;;;5071268;28;20027;-71
2022/01/06 02:48:10;;;;;;;12.15;2.15;;;;;;;;;;5070799;28;20044;-72
2022/01/06 02:50:38;;;;;;;14.07;2.13;;;;;;;;;;5071184;28;20017;-72
2022/01/06 02:53:04;;;;;;;3.92;1.88;;;;;;;;;;5071100;28;20053;-71
2022/01/06 02:55:30;;;;;;;7.82;2.05;;;;;;;;;;5070842;28;20028;-71
2022/01/06 02:57:56;;;;;;;10.57;2.15;;;;;;;;;;5053050;28;20082;-71
2022/01/06 03:00:22;;;;;;;9.18;2.58;;;;;;;;;;5071131;28;20544;-71
2022/01/06 03:02:49;;;;;;;12.45;2.42;;;;;;;;;;5070250;28;20055;-71
2022/01/06 03:05:16;;;;;;;11.43;2.60;;;;;;;;;;5073128;28;20402;-71
2022/01/06 03:07:42;;;;;;;7.88;2.47;;;;;;;;;;5074179;28;20288;-71
2022/01/06 03:10:11;;;;;;;16.10;2.88;;;;;;;;;;5074110;28;20036;-71
2022/01/06 03:12:39;;;;;;;8.35;3.17;;;;;;;;;;5056150;28;20027;-71
2022/01/06 03:15:09;;;;;;;11.35;3.65;;;;;;;;;;5073741;28;20104;-71
2022/01/06 03:17:35;;;;;;;14.02;4.00;;;;;;;;;;5074076;28;20179;-71
2022/01/06 03:20:02;;;;;;;15.95;4.07;;;;;;;;;;5074235;28;20021;-71
2022/01/06 03:22:28;;;;;;;12.32;3.58;;;;;;;;;;5074130;28;20398;-71
2022/01/06 03:24:54;;;;;;;9.15;3.33;;;;;;;;;;5073542;28;20184;-71
2022/01/06 03:27:20;;;;;;;14.25;3.90;;;;;;;;;;5073946;28;20025;-71
2022/01/06 03:29:47;;;;;;;7.43;3.00;;;;;;;;;;5074150;28;20116;-71
2022/01/06 03:32:13;;;;;;;22.42;3.30;;;;;;;;;;5056105;28;20434;-71
2022/01/06 03:34:39;;;;;;;18.63;3.30;;;;;;;;;;5073518;28;20101;-72
2022/01/06 03:37:06;;;;;;;13.23;3.58;;;;;;;;;;5073834;28;20482;-72
2022/01/06 03:39:32;;;;;;;13.98;3.70;;;;;;;;;;5074655;28;20170;-71
2022/01/06 03:41:59;;;;;;;16.73;3.70;;;;;;;;;;5075116;28;20636;-71
2022/01/06 03:44:24;;;;;;;17.17;3.95;;;;;;;;;;5073400;28;20025;-72
2022/01/06 03:46:52;;;;;;;11.48;3.60;;;;;;;;;;5074267;28;20107;-72
2022/01/06 03:49:18;;;;;;;9.02;2.88;;;;;;;;;;5073411;28;20056;-71
2022/01/06 03:51:44;;;;;;;13.38;3.30;;;;;;;;;;5073590;28;20028;-72
2022/01/06 03:54:10;;;;;;;8.05;3.78;;;;;;;;;;5072949;28;20081;-71
2022/01/06 03:56:36;;;;;;;18.83;4.00;;;;;;;;;;5073667;28;20031;-71
2022/01/06 03:59:03;;;;;;;17.90;4.13;;;;;;;;;;5073518;28;20028;-72
2022/01/06 04:01:29;;;;;;;9.73;2.40;;;;;;;;;;5073692;28;20083;-71
2022/01/06 04:03:55;;;;;;;11.02;2.70;;;;;;;;;;5073452;28;20028;-72
2022/01/06 04:06:21;;;;;;;7.25;1.92;;;;;;;;;;5073361;28;20033;-72
2022/01/06 04:08:47;;;;;;;11.35;3.13;;;;;;;;;;5073206;28;20036;-72
2022/01/06 04:11:13;;;;;;;9.05;3.25;;;;;;;;;;5073495;28;20414;-72
2022/01/06 04:13:39;;;;;;;7.57;1.85;;;;;;;;;;5072618;28;20478;-71
2022/01/06 04:16:08;;;;;;;4.00;1.38;;;;;;;;;;5072610;28;20028;-72
2022/01/06 04:18:34;;;;;;;5.40;1.38;;;;;;;;;;5072846;28;20032;-71
2022/01/06 04:21:00;;;;;;;6.85;1.67;;;;;;;;;;5055088;28;20028;-71
2022/01/06 04:23:26;;;;;;;9.23;2.63;;;;;;;;;;5072236;28;20095;-72
2022/01/06 04:25:52;;;;;;;5.82;2.00;;;;;;;;;;5072924;28;20126;-72
2022/01/06 04:28:18;;;;;;;5.38;1.73;;;;;;;;;;5072665;28;20033;-71
2022/01/06 04:30:45;;;;;;;5.40;2.15;;;;;;;;;;5072737;28;20127;-71
2022/01/06 04:33:11;;;;;;;2.83;1.80;;;;;;;;;;5072021;28;20058;-71
2022/01/06 04:35:37;;;;;;;4.70;2.22;;;;;;;;;;5072753;28;20385;-71
2022/01/06 04:38:03;;;;;;;3.72;2.28;;;;;;;;;;5054629;28;20086;-71
2022/01/06 04:40:32;;;;;;;6.82;2.40;;;;;;;;;;5072609;28;20036;-72
2022/01/06 04:42:58;;;;;;;5.88;2.58;;;;;;;;;;5071893;28;20040;-71
2022/01/06 04:45:24;;;;;;;6.80;2.65;;;;;;;;;;5072403;28;20031;-71
2022/01/06 04:47:50;;;;;;;5.00;2.92;;;;;;;;;;5055178;28;20078;-70
2022/01/06 04:50:16;;;;;;;13.85;4.82;;;;;;;;;;5072443;28;20055;-71
2022/01/06 04:52:42;;;;;;;7.53;3.53;;;;;;;;;;5072148;28;20028;-70
2022/01/06 04:55:08;;;;;;;8.55;3.08;;;;;;;;;;5072039;28;20169;-72
2022/01/06 04:57:34;;;;;;;9.63;3.83;;;;;;;;;;5072260;28;20021;-71
2022/01/06 05:00:00;;;;;;;8.02;3.72;;;;;;;;;;5072303;28;20470;-70
2022/01/06 05:02:26;;;;;;;7.13;3.35;;;;;;;;;;5072265;28;20112;-71
2022/01/06 05:04:52;;;;;;;11.23;3.58;;;;;;;;;;5071699;28;20020;-71
2022/01/06 05:07:18;;;;;;;10.00;3.60;;;;;;;;;;5072254;28;20031;-71
2022/01/06 05:09:44;;;;;;;7.57;3.08;;;;;;;;;;5054399;28;20036;-70
2022/01/06 05:12:10;;;;;;;8.80;3.40;;;;;;;;;;5054676;28;20032;-70
2022/01/06 05:14:36;;;;;;;8.95;4.05;;;;;;;;;;5053553;28;20016;-70
2022/01/06 05:17:02;;;;;;;10.88;4.10;;;;;;;;;;5071972;28;20017;-70
2022/01/06 05:19:28;;;;;;;11.75;4.25;;;;;;;;;;5072212;28;20107;-69
2022/01/06 05:21:54;;;;;;;8.63;4.20;;;;;;;;;;5072026;28;20142;-69
2022/01/06 05:24:23;;;;;;;9.30;4.43;;;;;;;;;;5071299;28;20052;-70
2022/01/06 05:26:49;;;;;;;9.55;3.40;;;;;;;;;;5071695;28;20449;-70
2022/01/06 05:29:15;;;;;;;10.05;2.83;;;;;;;;;;5071028;28;20448;-70
2022/01/06 05:31:41;;;;;;;10.68;3.47;;;;;;;;;;5071818;28;20070;-70
2022/01/06 05:34:08;;;;;;;8.25;3.10;;;;;;;;;;5071196;28;20051;-70
2022/01/06 05:36:34;;;;;;;8.70;3.08;;;;;;;;;;5053741;28;20025;-70
2022/01/06 05:39:00;;;;;;;8.48;3.58;;;;;;;;;;5053320;28;20032;-70
2022/01/06 05:41:26;;;;;;;8.18;3.40;;;;;;;;;;5071745;28;20025;-69
2022/01/06 05:43:52;;;;;;;14.85;2.85;;;;;;;;;;5070946;28;20073;-70
2022/01/06 05:46:19;;;;;;;12.50;3.70;;;;;;;;;;5071548;28;20036;-70
2022/01/06 05:48:45;;;;;;;6.97;3.22;;;;;;;;;;5071414;28;20033;-70
2022/01/06 05:51:11;;;;;;;6.05;3.63;;;;;;;;;;5071637;28;20017;-70
2022/01/06 05:53:37;;;;;;;6.28;3.47;;;;;;;;;;5070792;28;20078;-70
2022/01/06 05:56:03;;;;;;;12.15;3.80;;;;;;;;;;5071263;28;20021;-71
2022/01/06 05:58:29;;;;;;;10.70;3.47;;;;;;;;;;5053165;28;20138;-71
2022/01/06 06:00:55;;;;;;;14.15;3.40;;;;;;;;;;5071428;28;20108;-70
2022/01/06 06:03:22;;;;;;;9.18;3.25;;;;;;;;;;5070666;28;20032;-70
2022/01/06 06:05:48;;;;;;;7.10;3.17;;;;;;;;;;5071250;28;20036;-70
2022/01/06 06:08:14;;;;;;;7.88;3.28;;;;;;;;;;5053366;28;20024;-70
2022/01/06 06:10:40;;;;;;;8.55;3.20;;;;;;;;;;5071157;28;20092;-70
2022/01/06 06:13:06;;;;;;;5.68;3.08;;;;;;;;;;5070517;28;20115;-70
2022/01/06 06:15:35;;;;;;;6.05;2.83;;;;;;;;;;5052582;28;20059;-70
2022/01/06 06:18:05;;;;;;;8.05;2.60;;;;;;;;;;5071121;28;20090;-71
2022/01/06 06:20:31;;;;;;;4.70;2.67;;;;;;;;;;5071129;28;20098;-70
2022/01/06 06:22:57;;;;;;;9.15;2.20;;;;;;;;;;5070565;28;20021;-70
2022/01/06 06:25:23;;;;;;;6.38;2.00;;;;;;;;;;5070635;28;20078;-72
2022/01/06 06:27:49;;;;;;;4.68;2.45;;;;;;;;;;5052582;28;20032;-70
2022/01/06 06:30:16;;;;;;;5.07;1.73;;;;;;;;;;5070705;28;20029;-70
2022/01/06 06:32:42;;;;;;;6.50;2.15;;;;;;;;;;5070893;28;20020;-70
2022/01/06 06:35:08;;;;;;;8.35;2.45;;;;;;;;;;5070763;28;20081;-70
2022/01/06 06:37:34;;;;;;;8.82;2.92;;;;;;;;;;5070755;28;20028;-70
2022/01/06 06:40:00;;;;;;;8.82;2.60;;;;;;;;;;5072863;28;20033;-70
2022/01/06 06:42:26;;;;;;;4.18;2.40;;;;;;;;;;5056391;28;20394;-70
2022/01/06 06:44:52;;;;;;;3.83;2.20;;;;;;;;;;5074373;28;20052;-70
2022/01/06 06:47:18;;;;;;;6.55;2.30;;;;;;;;;;5074433;28;20086;-70
2022/01/06 06:49:44;;;;;;;8.65;2.63;;;;;;;;;;5056087;28;20115;-69
2022/01/06 06:52:10;;;;;;;6.53;1.85;;;;;;;;;;5074925;28;20378;-69
2022/01/06 06:54:36;;;;;;;6.70;1.95;;;;;;;;;;5055953;28;20385;-70
2022/01/06 06:57:02;;;;;;;9.45;1.90;;;;;;;;;;5074290;28;20025;-69
2022/01/06 06:59:28;;;;;;;6.68;1.80;;;;;;;;;;5074408;28;20093;-70
2022/01/06 07:01:54;;;;;;;5.60;1.63;;;;;;;;;;5074877;28;20020;-70
2022/01/06 07:04:20;;;;;;;7.18;1.58;;;;;;;;;;5055867;28;20070;-70
2022/01/06 07:06:46;;;;;;;6.85;1.70;;;;;;;;;;5074029;28;20029;-70
2022/01/06 07:09:12;;;;;;;7.95;2.53;;;;;;;;;;5074218;28;20029;-70
2022/01/06 07:11:38;;;;;;;6.55;1.45;;;;;;;;;;5055654;28;20032;-70
2022/01/06 07:14:04;;;;;;;6.25;1.83;;;;;;;;;;5073314;28;20082;-70
2022/01/06 07:16:30;;;;;;;4.93;1.75;;;;;;;;;;5074164;28;20020;-70
2022/01/06 07:18:56;;;;;;;15.68;1.88;;;;;;;;;;5074304;28;20474;-70
2022/01/06 07:21:22;;;;;;;7.38;1.55;;;;;;;;;;5056193;28;20025;-69
2022/01/06 07:23:48;;;;;;;5.95;1.40;;;;;;;;;;5055812;28;20498;-70
2022/01/06 07:26:14;;;;;;;4.72;1.35;;;;;;;;;;5073849;28;20060;-70
2022/01/06 07:28:40;;;;;;;5.88;1.17;;;;;;;;;;5073434;28;20028;-70
2022/01/06 07:31:07;;;;;;;4.70;1.30;;;;;;;;;;5073682;28;20112;-71
2022/01/06 07:33:33;;;;;;;5.28;2.45;;;;;;;;;;5073082;28;20028;-70
2022/01/06 07:35:59;;;;;;;7.80;1.55;;;;;;;;;;5073414;28;20032;-71
2022/01/06 07:38:25;;;;;;;8.38;3.13;;;;;;;;;;5073312;28;20035;-70
2022/01/06 07:40:51;;;;;;;5.72;1.50;;;;;;;;;;5073580;28;20429;-71
2022/01/06 07:43:17;;;;;;;6.68;1.67;;;;;;;;;;5073026;28;20039;-69
2022/01/06 07:45:43;;;;;;;6.53;2.00;;;;;;;;;;5073931;28;20486;-70
2022/01/06 07:48:25;;;;;;;6.40;1.58;;;;;;;;;;5073325;28;20094;-69
2022/01/06 07:50:51;;;;;;;3.13;1.13;;;;;;;;;;5072636;28;20031;-69
2022/01/06 07:53:17;;;;;;;4.40;1.48;;;;;;;;;;5072617;28;20020;-70
2022/01/06 07:55:43;;;;;;;8.68;1.60;;;;;;;;;;5073593;28;20029;-70
2022/01/06 07:58:09;;;;;;;8.82;2.55;;;;;;;;;;5073111;28;20034;-70
2022/01/06 08:00:35;;;;;;;3.35;0.98;;;;;;;;;;5073182;28;20398;-70
2022/01/06 08:03:01;;;;;;;6.07;1.98;;;;;;;;;;5072774;28;20035;-70
2022/01/06 08:05:27;;;;;;;7.88;1.40;;;;;;;;;;5073344;28;20603;-70
2022/01/06 08:07:54;;;;;;;4.18;0.95;;;;;;;;;;5072977;28;20029;-70
2022/01/06 08:10:20;;;;;;;3.65;1.38;;;;;;;;;;5055371;28;20027;-70
2022/01/06 08:12:46;;;;;;;4.72;1.73;;;;;;;;;;5072626;28;20462;-70
2022/01/06 08:15:14;;;;;;;5.78;1.92;;;;;;;;;;5055066;28;20025;-70
2022/01/06 08:17:40;;;;;;;8.50;1.73;;;;;;;;;;5072871;28;20440;-70
2022/01/06 08:20:06;;;;;;;6.57;1.15;;;;;;;;;;5055034;28;20086;-71
2022/01/06 08:22:33;;;;;;;4.18;0.93;;;;;;;;;;5072892;28;20482;-70
2022/01/06 08:24:58;;;;;;;5.82;1.77;;;;;;;;;;5072375;28;20490;-70
2022/01/06 08:27:27;;;;;;;7.20;1.30;;;;;;;;;;5072967;28;20024;-70
2022/01/06 08:29:53;;;;;;;2.75;1.10;;;;;;;;;;5072996;28;20458;-70
2022/01/06 08:32:19;;;;;;;5.25;1.08;;;;;;;;;;5072653;28;20099;-70
2022/01/06 08:34:45;;;;;;;5.85;1.55;;;;;;;;;;5072108;28;20379;-70
2022/01/06 08:37:13;;;;;;;5.30;1.60;;;;;;;;;;5072776;28;20028;-70
2022/01/06 08:39:39;;;;;;;10.43;1.60;;;;;;;;;;5072597;28;20025;-70
2022/01/06 08:42:07;;;;;;;5.50;1.73;;;;;;;;;;5072765;28;20035;-71
2022/01/06 08:44:33;;;;;;;4.65;2.13;;;;;;;;;;5072014;28;20078;-70
2022/01/06 08:47:01;;;;;;;10.65;1.50;;;;;;;;;;5054442;28;20032;-70
2022/01/06 08:49:27;;;;;;;5.63;1.75;;;;;;;;;;5071944;28;20116;-70
2022/01/06 08:51:53;;;;;;;5.85;1.52;;;;;;;;;;5054662;28;20017;-70
2022/01/06 08:54:19;;;;;;;8.43;1.65;;;;;;;;;;5071545;28;20082;-71
2022/01/06 08:56:45;;;;;;;3.63;1.63;;;;;;;;;;5072324;28;20031;-70
2022/01/06 08:59:11;;;;;;;3.30;1.05;;;;;;;;;;5054367;28;20115;-70
2022/01/06 09:01:37;;;;;;;1.42;0.98;;;;;;;;;;5054296;28;20028;-71
2022/01/06 09:04:03;;;;;;;9.77;1.77;;;;;;;;;;5053451;28;20029;-71
2022/01/06 09:06:29;;;;;;;7.07;1.42;;;;;;;;;;5072434;28;20036;-71
2022/01/06 09:08:55;;;;;;;3.85;1.25;;;;;;;;;;5072175;28;20028;-71
2022/01/06 09:11:21;;;;;;;9.60;1.77;;;;;;;;;;5053944;28;20390;-70
2022/01/06 09:13:47;;;;;;;8.13;1.77;;;;;;;;;;5071969;28;20032;-70
2022/01/06 09:16:13;;;;;;;4.93;1.70;;;;;;;;;;5072733;28;20086;-71
2022/01/06 09:18:40;;;;;;;11.15;1.92;;;;;;;;;;5041961;28;20025;-71
2022/01/06 09:21:06;;;;;;;3.90;1.52;;;;;;;;;;5058587;28;20103;-70
2022/01/06 09:23:33;;;;;;;7.00;2.83;;;;;;;;;;5053271;28;20028;-70
2022/01/06 09:25:59;;;;;;;2.63;1.50;;;;;;;;;;5071889;28;20440;-71
2022/01/06 09:28:25;;;;;;;8.05;1.70;;;;;;;;;;5071713;28;20028;-71
2022/01/06 09:30:51;;;;;;;8.70;2.30;;;;;;;;;;5054035;28;20136;-72
2022/01/06 09:33:18;;;;;;;4.70;1.80;;;;;;;;;;5071240;28;20021;-69
2022/01/06 09:35:45;;;;;;;5.75;1.65;;;;;;;;;;5071741;28;20052;-70
2022/01/06 09:38:11;;;;;;;5.18;1.80;;;;;;;;;;5053781;28;20024;-70
2022/01/06 09:40:38;;;;;;;9.82;1.98;;;;;;;;;;5054249;28;20055;-71
2022/01/06 09:43:04;;;;;;;7.80;1.83;;;;;;;;;;5053140;28;20031;-70
2022/01/06 09:45:32;;;;;;;7.80;1.58;;;;;;;;;;5071701;28;20037;-71
2022/01/06 09:47:58;;;;;;;4.57;1.67;;;;;;;;;;5072596;28;20037;-71
2022/01/06 09:50:24;;;;;;;8.90;2.30;;;;;;;;;;5071738;28;20024;-71
2022/01/06 09:52:51;;;;;;;5.80;1.85;;;;;;;;;;5070912;28;20162;-71
2022/01/06 09:55:17;;;;;;;4.22;1.92;;;;;;;;;;5071448;28;20556;-71
2022/01/06 09:57:49;;;;;;;9.18;2.03;;;;;;;;;;5071536;28;20060;-71
2022/01/06 10:00:17;;;;;;;5.05;2.20;;;;;;;;;;5071794;28;20024;-72
2022/01/06 10:02:43;;;;;;;6.20;1.98;;;;;;;;;;5071528;28;20044;-71
2022/01/06 10:05:09;;;;;;;8.15;1.90;;;;;;;;;;5071287;28;20090;-71
2022/01/06 10:07:36;;;;;;;6.57;1.67;;;;;;;;;;5071433;28;20540;-72
2022/01/06 10:10:06;;;;;;;5.70;2.35;;;;;;;;;;5071544;28;20031;-70
2022/01/06 10:12:32;;;;;;;2.88;1.42;;;;;;;;;;5071956;28;20016;-71
2022/01/06 10:14:59;;;;;;;5.53;1.90;;;;;;;;;;5072981;28;20125;-70
2022/01/06 10:17:33;;;;;;;7.05;1.75;;;;;;;;;;5075335;28;20013;-69
2022/01/06 10:20:15;;;;;;;7.15;2.10;;;;;;;;;;5075116;28;20028;-70
2022/01/06 10:22:45;;;;;;;6.80;2.10;;;;;;;;;;5057001;28;20553;-71
2022/01/06 10:25:14;;;;;;;4.05;1.55;;;;;;;;;;5075090;28;20033;-72
2022/01/06 10:27:41;;;;;;;6.15;2.28;;;;;;;;;;5075100;28;20098;-70
2022/01/06 10:30:08;;;;;;;7.28;1.52;;;;;;;;;;5075384;28;20031;-71
2022/01/06 10:32:34;;;;;;;4.82;1.70;;;;;;;;;;5074894;28;20549;-71
2022/01/06 10:35:02;;;;;;;5.93;2.00;;;;;;;;;;5074393;28;20500;-70
2022/01/06 10:37:35;;;;;;;10.48;2.50;;;;;;;;;;5056744;28;20215;-70
2022/01/06 10:40:03;;;;;;;5.90;3.03;;;;;;;;;;5074870;28;20482;-70
2022/01/06 10:42:31;;;;;;;7.30;2.28;;;;;;;;;;5074937;28;20091;-70
2022/01/06 10:45:13;;;;;;;10.98;2.10;;;;;;;;;;5056192;28;20032;-71
2022/01/06 10:50:25;;;;;;;8.40;1.98;;;;;;;;;;5069806;22;20088;-65
2022/01/06 10:52:53;;;;;;;9.15;2.13;;;;;;;;;;5055317;28;20033;-67
2022/01/06 10:55:23;;;;;;;8.70;2.28;;;;;;;;;;5055358;28;20044;-67
2022/01/06 10:57:53;;;;;;;4.20;1.65;;;;;;;;;;5055359;28;20049;-68
2022/01/06 11:00:19;;;;;;;6.28;2.03;;;;;;;;;;5055348;28;20029;-68
2022/01/06 11:02:45;;;;;;;8.18;1.63;;;;;;;;;;5054859;28;20039;-66
2022/01/06 11:05:11;;;;;;;4.05;1.50;;;;;;;;;;5055525;28;20051;-67
2022/01/06 11:07:37;;;;;;;5.72;2.33;;;;;;;;;;5037259;28;20423;-68
2022/01/06 11:10:15;;;;;;;7.75;2.85;;;;;;;;;;5055003;28;20028;-69
2022/01/06 11:12:41;;;;;;;6.35;2.22;;;;;;;;;;5055034;28;20048;-68
2022/01/06 11:15:08;;;;;;;6.40;2.10;;;;;;;;;;5053958;28;20021;-67
2022/01/06 11:17:34;;;;;;;3.83;2.00;;;;;;;;;;5036974;28;20069;-68
2022/01/06 11:20:00;;;;;;;4.22;2.08;;;;;;;;;;5054720;28;20039;-68
2022/01/06 11:22:27;;;;;;;5.13;2.67;;;;;;;;;;5054535;28;20029;-68
2022/01/06 11:24:54;;;;;;;8.45;2.28;;;;;;;;;;5054129;28;20025;-68
2022/01/06 11:27:29;;;;;;;3.47;2.28;;;;;;;;;;5054250;28;20021;-68
2022/01/06 11:29:55;;;;;;;5.65;2.35;;;;;;;;;;5037027;28;20029;-67
2022/01/06 11:32:22;;;;;;;4.70;2.17;;;;;;;;;;5055066;28;20045;-67
2022/01/06 11:35:00;;;;;;;4.13;2.10;;;;;;;;;;5054095;28;20036;-67
2022/01/06 11:37:28;;;;;;;8.55;1.98;;;;;;;;;;5054365;28;20031;-68
2022/01/06 11:40:01;;;;;;;5.75;2.00;;;;;;;;;;5053891;28;20029;-68
2022/01/06 11:42:28;;;;;;;3.58;2.08;;;;;;;;;;5036164;28;20032;-69
2022/01/06 11:44:54;;;;;;;5.53;2.42;;;;;;;;;;5052968;28;20055;-69
2022/01/06 11:47:29;;;;;;;6.18;1.70;;;;;;;;;;5053909;28;20103;-69
2022/01/06 11:50:05;;;;;;;8.63;1.83;;;;;;;;;;5035460;28;20029;-69
2022/01/06 11:52:31;;;;;;;3.08;1.50;;;;;;;;;;5053650;28;20017;-68
2022/01/06 11:54:57;;;;;;;5.45;1.27;;;;;;;;;;5053222;28;20071;-69
2022/01/06 11:57:30;;;;;;;5.35;1.83;;;;;;;;;;5053334;28;20028;-68
2022/01/06 11:59:57;;;;;;;4.40;1.55;;;;;;;;;;5035447;28;20024;-68
2022/01/06 12:02:23;;;;;;;2.83;1.52;;;;;;;;;;5053298;28;20025;-69
2022/01/06 12:04:57;;;;;;;6.63;2.53;;;;;;;;;;5051946;28;20029;-68
2022/01/06 12:07:23;;;;;;;3.17;1.48;;;;;;;;;;5033044;28;20028;-68
2022/01/06 12:09:55;;;;;;;8.02;1.95;;;;;;;;;;5051113;28;20017;-69
2022/01/06 12:12:31;;;;;;;4.78;1.70;;;;;;;;;;5051006;28;20056;-68
2022/01/06 12:15:11;;;;;;;5.15;2.03;;;;;;;;;;5050818;28;20021;-68
2022/01/06 12:17:38;;;;;;;3.10;1.25;;;;;;;;;;5032972;28;20344;-68
2022/01/06 12:20:06;;;;;;;4.30;1.80;;;;;;;;;;5051004;28;20029;-68
2022/01/06 12:22:32;;;;;;;4.28;1.80;;;;;;;;;;5052239;28;20017;-68
2022/01/06 12:25:07;;;;;;;6.82;1.67;;;;;;;;;;5052239;28;20479;-68
2022/01/06 12:27:43;;;;;;;5.53;1.48;;;;;;;;;;5052844;28;20021;-66
2022/01/06 12:30:09;;;;;;;4.75;1.85;;;;;;;;;;5052439;28;20086;-68
2022/01/06 12:32:35;;;;;;;2.70;1.13;;;;;;;;;;5057957;28;20028;-68
2022/01/06 12:35:01;;;;;;;4.10;1.75;;;;;;;;;;5071747;28;20021;-70
2022/01/06 12:37:28;;;;;;;7.30;2.20;;;;;;;;;;5063743;28;20513;-68
2022/01/06 12:39:55;;;;;;;6.03;1.88;;;;;;;;;;5052228;28;20029;-69
2022/01/06 12:42:21;;;;;;;9.13;2.33;;;;;;;;;;5066857;28;20103;-69
2022/01/06 12:44:47;;;;;;;9.13;3.83;;;;;;;;;;5051350;28;20101;-72
2022/01/06 12:47:13;;;;;;;85.55;34.80;;;;;;;;;;5050545;28;20021;-70
2022/01/06 12:49:39;;;;;;;100.25;40.15;;;;;;;;;;5050858;28;20029;-68
2022/01/06 12:52:06;;;;;;;166.25;64.10;;;;;;;;;;5051515;28;20389;-72
2022/01/06 12:54:34;;;;;;;92.22;36.08;;;;;;;;;;5050812;28;20025;-70
2022/01/06 12:57:02;;;;;;;109.82;42.00;;;;;;;;;;5051339;28;20382;-70
2022/01/06 12:59:36;;;;;;;96.38;38.95;;;;;;;;;;5051448;28;20382;-69
2022/01/06 13:02:04;;;;;;;21.50;9.90;;;;;;;;;;5051980;28;20025;-68
2022/01/06 13:04:31;;;;;;;48.40;19.42;;;;;;;;;;5051159;28;20509;-68
2022/01/06 13:06:58;;;;;;;31.40;11.05;;;;;;;;;;5051957;28;20025;-69
2022/01/06 13:09:26;;;;;;;11.00;3.83;;;;;;;;;;5050565;28;20053;-69
2022/01/06 13:11:57;;;;;;;48.70;19.63;;;;;;;;;;5033200;28;20052;-68
2022/01/06 13:14:27;;;;;;;20.27;6.93;;;;;;;;;;5051638;28;20036;-69
2022/01/06 13:17:04;;;;;;;16.10;6.30;;;;;;;;;;5052152;28;20032;-69
2022/01/06 13:19:30;;;;;;;19.02;7.78;;;;;;;;;;5051655;28;20036;-69
2022/01/06 13:21:59;;;;;;;17.98;5.85;;;;;;;;;;5050483;28;20021;-70
2022/01/06 13:24:29;;;;;;;37.22;14.70;;;;;;;;;;5031397;28;20029;-67
2022/01/06 13:26:59;;;;;;;21.75;8.63;;;;;;;;;;5051506;28;20039;-69
2022/01/06 13:29:29;;;;;;;22.63;8.70;;;;;;;;;;5051912;28;20029;-71
2022/01/06 13:32:01;;;;;;;18.15;6.20;;;;;;;;;;5051741;28;20100;-70
2022/01/06 13:34:27;;;;;;;15.13;6.20;;;;;;;;;;5050496;28;20074;-70
2022/01/06 13:37:02;;;;;;;20.20;6.53;;;;;;;;;;5051279;28;20029;-69
2022/01/06 13:39:38;;;;;;;7.90;2.55;;;;;;;;;;5051480;28;20021;-70
2022/01/06 13:42:05;;;;;;;13.10;5.35;;;;;;;;;;5033353;28;20033;-69
2022/01/06 13:44:32;;;;;;;12.00;5.03;;;;;;;;;;5050729;28;20025;-70
2022/01/06 13:47:09;;;;;;;13.52;2.92;;;;;;;;;;5051456;28;20391;-70
2022/01/06 13:52:24;;;;;;;16.60;5.00;;;;;;;;;;5050818;28;20032;-68
2022/01/06 13:54:51;;;;;;;9.30;3.15;;;;;;;;;;5031969;28;20021;-71
2022/01/06 13:57:17;;;;;;;7.85;3.00;;;;;;;;;;5050288;28;20028;-70
2022/01/06 13:59:43;;;;;;;13.60;4.80;;;;;;;;;;5032328;28;20017;-70
2022/01/06 14:02:10;;;;;;;12.98;4.20;;;;;;;;;;5050482;28;20502;-71
2022/01/06 14:04:38;;;;;;;15.85;5.25;;;;;;;;;;5049997;28;20453;-70
2022/01/06 14:07:04;;;;;;;8.88;3.13;;;;;;;;;;5050215;28;20336;-70
2022/01/06 14:09:30;;;;;;;11.07;4.45;;;;;;;;;;5049906;28;20079;-70
2022/01/06 14:11:57;;;;;;;19.27;7.20;;;;;;;;;;5032123;28;20419;-71
2022/01/06 14:14:23;;;;;;;6.55;2.85;;;;;;;;;;5049701;28;20029;-71
2022/01/06 14:16:49;;;;;;;4.65;2.13;;;;;;;;;;5050167;28;20403;-70
2022/01/06 14:19:15;;;;;;;5.38;1.85;;;;;;;;;;5049839;28;20052;-71
2022/01/06 14:21:41;;;;;;;13.82;5.18;;;;;;;;;;5050214;28;20087;-70
2022/01/06 14:24:07;;;;;;;16.70;4.97;;;;;;;;;;5049218;28;20025;-71
2022/01/06 14:26:33;;;;;;;10.30;2.85;;;;;;;;;;5049881;28;20036;-70
2022/01/06 14:28:59;;;;;;;8.32;2.25;;;;;;;;;;5049976;28;20071;-71
2022/01/06 14:31:25;;;;;;;10.68;2.35;;;;;;;;;;5050168;28;20021;-71
2022/01/06 14:33:52;;;;;;;8.55;3.50;;;;;;;;;;5031443;28;20025;-71
2022/01/06 14:36:20;;;;;;;10.45;3.03;;;;;;;;;;5049685;28;20013;-70
2022/01/06 14:38:47;;;;;;;9.40;2.97;;;;;;;;;;5049705;28;20033;-69
2022/01/06 14:41:15;;;;;;;8.57;3.35;;;;;;;;;;5048927;28;20090;-70
2022/01/06 14:43:41;;;;;;;9.77;3.63;;;;;;;;;;5049213;28;20204;-69
2022/01/06 14:46:07;;;;;;;7.75;2.92;;;;;;;;;;5049958;28;20045;-72
2022/01/06 14:48:33;;;;;;;5.22;1.67;;;;;;;;;;5013554;28;1046835;-71
2022/01/06 14:51:00;;;;;;;10.70;3.90;;;;;;;;;;5050596;28;20446;-70